FDX9906 KHRL-KAFW
Flight info
| Callsign | FDX9906 |
|---|---|
| Flight time | 1h 29m |
| Altitude | 31000 |
| Route | CRP MARCS BIEST LIKES4 |
| Aircraft | B722/M-SDFGHRWY/C |
Departure
| Time | 2026-05-04 19:03 |
|---|---|
| Airport | Valley International Airport (KHRL) |
Arrival
| Time | 2026-05-04 20:32 |
|---|---|
| Airport | Perot Field/Fort Worth Alliance Airport (KAFW) |
| Time | Latitude | Longitude | Altitude | Speed | Heading |
|---|---|---|---|---|---|
| 2026-05-04 18:18 | 26.21984 | -97.66141 | 52 ft | 0 kts | 272° |
| 2026-05-04 18:47 | 26.21984 | -97.66129 | 50 ft | 3 kts | 271° |
| 2026-05-04 18:47 | 26.21983 | -97.66102 | 48 ft | 3 kts | 270° |
| 2026-05-04 18:48 | 26.21983 | -97.66077 | 48 ft | 3 kts | 273° |
| 2026-05-04 18:48 | 26.21977 | -97.66056 | 46 ft | 3 kts | 313° |
| 2026-05-04 18:48 | 26.21959 | -97.66048 | 48 ft | 3 kts | 358° |
| 2026-05-04 18:48 | 26.21941 | -97.66049 | 48 ft | 1 kts | 1° |
| 2026-05-04 18:49 | 26.21938 | -97.66049 | 48 ft | 0 kts | 1° |
| 2026-05-04 18:55 | 26.21943 | -97.66049 | 52 ft | 3 kts | 1° |
| 2026-05-04 18:55 | 26.22065 | -97.66046 | 53 ft | 12 kts | 1° |
| 2026-05-04 18:55 | 26.22159 | -97.66045 | 53 ft | 14 kts | 0° |
| 2026-05-04 18:56 | 26.22267 | -97.66045 | 52 ft | 15 kts | 0° |
| 2026-05-04 18:56 | 26.22371 | -97.66044 | 52 ft | 16 kts | 1° |
| 2026-05-04 18:56 | 26.22488 | -97.66040 | 52 ft | 17 kts | 1° |
| 2026-05-04 18:56 | 26.22606 | -97.66039 | 52 ft | 18 kts | 360° |
| 2026-05-04 18:57 | 26.22732 | -97.66039 | 51 ft | 16 kts | 1° |
| 2026-05-04 18:57 | 26.22838 | -97.66056 | 49 ft | 15 kts | 326° |
| 2026-05-04 18:57 | 26.22918 | -97.66139 | 60 ft | 16 kts | 316° |
| 2026-05-04 18:57 | 26.23006 | -97.66233 | 49 ft | 18 kts | 316° |
| 2026-05-04 18:58 | 26.23098 | -97.66334 | 54 ft | 18 kts | 315° |
| 2026-05-04 18:58 | 26.23180 | -97.66425 | 52 ft | 18 kts | 315° |
| 2026-05-04 18:58 | 26.23234 | -97.66460 | 52 ft | 8 kts | 16° |
| 2026-05-04 18:58 | 26.23241 | -97.66457 | 54 ft | 0 kts | 31° |
| 2026-05-04 19:00 | 26.23254 | -97.66446 | 53 ft | 5 kts | 38° |
| 2026-05-04 19:01 | 26.23291 | -97.66401 | 51 ft | 9 kts | 77° |
| 2026-05-04 19:01 | 26.23280 | -97.66365 | 54 ft | 0 kts | 128° |
| 2026-05-04 19:02 | 26.23272 | -97.66355 | 53 ft | 11 kts | 133° |
| 2026-05-04 19:02 | 26.23079 | -97.66150 | 50 ft | 68 kts | 137° |
| 2026-05-04 19:02 | 26.22606 | -97.65636 | 49 ft | 119 kts | 135° |
| 2026-05-04 19:02 | 26.21915 | -97.64930 | 236 ft | 141 kts | 143° |
| 2026-05-04 19:03 | 26.21088 | -97.64271 | 634 ft | 153 kts | 144° |
| 2026-05-04 19:03 | 26.20296 | -97.63399 | 1020 ft | 168 kts | 136° |
| 2026-05-04 19:03 | 26.19463 | -97.62410 | 1418 ft | 181 kts | 136° |
| 2026-05-04 19:03 | 26.18599 | -97.61316 | 1826 ft | 196 kts | 129° |
| 2026-05-04 19:04 | 26.18155 | -97.59792 | 2209 ft | 231 kts | 92° |
| 2026-05-04 19:04 | 26.18793 | -97.57996 | 2653 ft | 274 kts | 51° |
| 2026-05-04 19:04 | 26.20423 | -97.56919 | 3828 ft | 281 kts | 17° |
| 2026-05-04 19:04 | 26.22347 | -97.56512 | 4954 ft | 283 kts | 4° |
| 2026-05-04 19:05 | 26.24329 | -97.56409 | 6019 ft | 286 kts | 358° |
| 2026-05-04 19:05 | 26.26340 | -97.56363 | 7027 ft | 290 kts | 1° |
| 2026-05-04 19:05 | 26.28347 | -97.56204 | 8153 ft | 287 kts | 1° |
| 2026-05-04 19:05 | 26.30339 | -97.56034 | 9236 ft | 286 kts | 2° |
| 2026-05-04 19:06 | 26.32324 | -97.55895 | 10252 ft | 286 kts | 0° |
| 2026-05-04 19:06 | 26.34358 | -97.55765 | 10799 ft | 304 kts | 360° |
| 2026-05-04 19:06 | 26.36560 | -97.55612 | 11100 ft | 330 kts | 1° |
| 2026-05-04 19:06 | 26.38862 | -97.55437 | 11999 ft | 330 kts | 0° |
| 2026-05-04 19:07 | 26.41176 | -97.55268 | 12832 ft | 337 kts | 359° |
| 2026-05-04 19:07 | 26.43529 | -97.55106 | 13676 ft | 341 kts | 359° |
| 2026-05-04 19:07 | 26.45875 | -97.54940 | 14467 ft | 344 kts | 358° |
| 2026-05-04 19:07 | 26.48267 | -97.54766 | 15276 ft | 345 kts | 358° |
| 2026-05-04 19:08 | 26.50675 | -97.54593 | 16058 ft | 348 kts | 358° |
| 2026-05-04 19:08 | 26.53096 | -97.54422 | 16819 ft | 350 kts | 358° |
| 2026-05-04 19:08 | 26.55541 | -97.54248 | 17584 ft | 353 kts | 358° |
| 2026-05-04 19:08 | 26.57998 | -97.54071 | 18317 ft | 356 kts | 358° |
| 2026-05-04 19:09 | 26.60473 | -97.53894 | 18952 ft | 358 kts | 358° |
| 2026-05-04 19:09 | 26.62962 | -97.53716 | 19581 ft | 359 kts | 358° |
| 2026-05-04 19:09 | 26.65467 | -97.53537 | 20198 ft | 361 kts | 358° |
| 2026-05-04 19:09 | 26.67978 | -97.53356 | 20824 ft | 363 kts | 357° |
| 2026-05-04 19:10 | 26.70509 | -97.53175 | 21407 ft | 365 kts | 357° |
| 2026-05-04 19:10 | 26.73055 | -97.52993 | 21978 ft | 368 kts | 357° |
| 2026-05-04 19:10 | 26.75615 | -97.52809 | 22551 ft | 370 kts | 357° |
| 2026-05-04 19:10 | 26.78190 | -97.52624 | 23106 ft | 372 kts | 357° |
| 2026-05-04 19:11 | 26.80777 | -97.52439 | 23633 ft | 374 kts | 357° |
| 2026-05-04 19:11 | 26.83384 | -97.52252 | 24030 ft | 377 kts | 357° |
| 2026-05-04 19:11 | 26.86016 | -97.52063 | 24419 ft | 381 kts | 357° |
| 2026-05-04 19:11 | 26.88671 | -97.51872 | 24804 ft | 384 kts | 357° |
| 2026-05-04 19:12 | 26.91348 | -97.51679 | 25187 ft | 387 kts | 357° |
| 2026-05-04 19:12 | 26.96765 | -97.51290 | 25918 ft | 393 kts | 356° |
| 2026-05-04 19:12 | 26.99501 | -97.51091 | 26340 ft | 395 kts | 356° |
| 2026-05-04 19:13 | 27.02248 | -97.50893 | 26719 ft | 397 kts | 356° |
| 2026-05-04 19:13 | 27.05015 | -97.50695 | 27059 ft | 400 kts | 356° |
| 2026-05-04 19:13 | 27.07801 | -97.50494 | 27394 ft | 403 kts | 356° |
| 2026-05-04 19:13 | 27.10605 | -97.50291 | 27761 ft | 405 kts | 356° |
| 2026-05-04 19:14 | 27.13427 | -97.50087 | 28096 ft | 407 kts | 355° |
| 2026-05-04 19:14 | 27.16267 | -97.49883 | 28419 ft | 410 kts | 355° |
| 2026-05-04 19:14 | 27.19120 | -97.49676 | 28732 ft | 412 kts | 355° |
| 2026-05-04 19:14 | 27.21994 | -97.49468 | 29039 ft | 415 kts | 355° |
| 2026-05-04 19:15 | 27.24881 | -97.49259 | 29335 ft | 417 kts | 355° |
| 2026-05-04 19:15 | 27.27781 | -97.49049 | 29648 ft | 419 kts | 355° |
| 2026-05-04 19:15 | 27.30689 | -97.48837 | 29993 ft | 420 kts | 355° |
| 2026-05-04 19:15 | 27.33613 | -97.48626 | 30217 ft | 422 kts | 355° |
| 2026-05-04 19:16 | 27.36544 | -97.48415 | 30415 ft | 423 kts | 355° |
| 2026-05-04 19:16 | 27.39489 | -97.48200 | 30602 ft | 425 kts | 355° |
| 2026-05-04 19:16 | 27.42440 | -97.47985 | 30814 ft | 426 kts | 355° |
| 2026-05-04 19:16 | 27.45400 | -97.47770 | 30983 ft | 428 kts | 355° |
| 2026-05-04 19:17 | 27.48382 | -97.47555 | 30985 ft | 429 kts | 355° |
| 2026-05-04 19:17 | 27.54348 | -97.47119 | 31005 ft | 431 kts | 355° |
| 2026-05-04 19:18 | 27.60345 | -97.46683 | 31011 ft | 432 kts | 355° |
| 2026-05-04 19:18 | 27.66350 | -97.46244 | 31012 ft | 432 kts | 355° |
| 2026-05-04 19:19 | 27.72349 | -97.45807 | 31015 ft | 432 kts | 355° |
| 2026-05-04 19:19 | 27.78340 | -97.45369 | 31014 ft | 431 kts | 355° |
| 2026-05-04 19:20 | 27.84316 | -97.44932 | 31011 ft | 430 kts | 355° |
| 2026-05-04 19:20 | 27.90267 | -97.44588 | 31002 ft | 422 kts | 349° |
| 2026-05-04 19:21 | 27.95976 | -97.45547 | 31007 ft | 410 kts | 340° |
| 2026-05-04 19:21 | 28.01587 | -97.46846 | 30989 ft | 414 kts | 343° |
| 2026-05-04 19:22 | 28.07259 | -97.47914 | 30995 ft | 412 kts | 342° |
| 2026-05-04 19:22 | 28.12846 | -97.49122 | 30995 ft | 412 kts | 342° |
| 2026-05-04 19:23 | 28.18494 | -97.50250 | 30994 ft | 412 kts | 342° |
| 2026-05-04 19:23 | 28.24119 | -97.51428 | 30995 ft | 411 kts | 342° |
| 2026-05-04 19:24 | 28.29750 | -97.52579 | 30996 ft | 411 kts | 342° |
| 2026-05-04 19:24 | 28.35366 | -97.53745 | 30995 ft | 410 kts | 342° |
| 2026-05-04 19:25 | 28.40981 | -97.54902 | 30995 ft | 410 kts | 342° |
| 2026-05-04 19:25 | 28.46586 | -97.56064 | 30996 ft | 410 kts | 342° |
| 2026-05-04 19:26 | 28.52198 | -97.57225 | 30992 ft | 409 kts | 342° |
| 2026-05-04 19:26 | 28.57799 | -97.58387 | 30981 ft | 409 kts | 342° |
| 2026-05-04 19:27 | 28.63397 | -97.59549 | 30954 ft | 409 kts | 342° |
| 2026-05-04 19:27 | 28.68989 | -97.60711 | 30953 ft | 408 kts | 342° |
| 2026-05-04 19:28 | 28.74581 | -97.61875 | 30979 ft | 408 kts | 342° |
| 2026-05-04 19:28 | 28.80170 | -97.63039 | 30966 ft | 408 kts | 342° |
| 2026-05-04 19:29 | 28.85752 | -97.64203 | 30960 ft | 408 kts | 342° |
| 2026-05-04 19:29 | 28.91328 | -97.65367 | 30959 ft | 407 kts | 342° |
| 2026-05-04 19:30 | 28.96900 | -97.66531 | 30961 ft | 407 kts | 342° |
| 2026-05-04 19:30 | 29.02469 | -97.67696 | 30963 ft | 407 kts | 342° |
| 2026-05-04 19:31 | 29.08039 | -97.68862 | 30962 ft | 407 kts | 341° |
| 2026-05-04 19:31 | 29.13607 | -97.70030 | 30964 ft | 407 kts | 341° |
| 2026-05-04 19:32 | 29.19169 | -97.71197 | 30961 ft | 406 kts | 341° |
| 2026-05-04 19:32 | 29.24726 | -97.72365 | 30961 ft | 406 kts | 341° |
| 2026-05-04 19:33 | 29.30277 | -97.73532 | 30961 ft | 406 kts | 341° |
| 2026-05-04 19:33 | 29.35834 | -97.74703 | 30948 ft | 406 kts | 341° |
| 2026-05-04 19:34 | 29.41383 | -97.75872 | 30944 ft | 405 kts | 341° |
| 2026-05-04 19:34 | 29.46897 | -97.77035 | 30944 ft | 405 kts | 341° |
| 2026-05-04 19:35 | 29.52436 | -97.78207 | 30949 ft | 405 kts | 341° |
| 2026-05-04 19:35 | 29.57980 | -97.79379 | 30955 ft | 405 kts | 341° |
| 2026-05-04 19:36 | 29.63519 | -97.80551 | 30956 ft | 405 kts | 341° |
| 2026-05-04 19:36 | 29.69050 | -97.81724 | 30955 ft | 404 kts | 341° |
| 2026-05-04 19:37 | 29.74579 | -97.82898 | 30991 ft | 404 kts | 341° |
| 2026-05-04 19:37 | 29.79181 | -97.83876 | 30998 ft | 404 kts | 341° |
| 2026-05-04 19:38 | 29.84714 | -97.85052 | 31003 ft | 404 kts | 341° |
| 2026-05-04 19:38 | 29.90237 | -97.86238 | 31003 ft | 403 kts | 340° |
| 2026-05-04 19:39 | 29.95666 | -97.87680 | 31004 ft | 399 kts | 338° |
| 2026-05-04 19:39 | 30.01083 | -97.89119 | 30997 ft | 399 kts | 339° |
| 2026-05-04 19:40 | 30.06486 | -97.90535 | 30992 ft | 398 kts | 338° |
| 2026-05-04 19:40 | 30.11883 | -97.91974 | 30980 ft | 398 kts | 339° |
| 2026-05-04 19:41 | 30.17283 | -97.93397 | 30968 ft | 399 kts | 338° |
| 2026-05-04 19:41 | 30.22704 | -97.94838 | 30967 ft | 401 kts | 339° |
| 2026-05-04 19:42 | 30.28148 | -97.96282 | 30984 ft | 401 kts | 339° |
| 2026-05-04 19:42 | 30.33593 | -97.97732 | 30991 ft | 401 kts | 338° |
| 2026-05-04 19:43 | 30.39025 | -97.99175 | 31002 ft | 400 kts | 338° |
| 2026-05-04 19:43 | 30.44446 | -98.00620 | 31007 ft | 400 kts | 338° |
| 2026-05-04 19:44 | 30.49864 | -98.02066 | 31005 ft | 399 kts | 338° |
| 2026-05-04 19:44 | 30.55276 | -98.03511 | 31008 ft | 399 kts | 338° |
| 2026-05-04 19:45 | 30.60685 | -98.04956 | 30996 ft | 399 kts | 338° |
| 2026-05-04 19:45 | 30.66094 | -98.06404 | 30978 ft | 398 kts | 338° |
| 2026-05-04 19:45 | 30.68765 | -98.07116 | 30687 ft | 389 kts | 338° |
| 2026-05-04 19:46 | 30.71381 | -98.07813 | 30238 ft | 382 kts | 338° |
| 2026-05-04 19:46 | 30.73966 | -98.08512 | 29700 ft | 383 kts | 338° |
| 2026-05-04 19:46 | 30.76577 | -98.09222 | 29133 ft | 388 kts | 338° |
| 2026-05-04 19:46 | 30.79216 | -98.09928 | 28586 ft | 390 kts | 339° |
| 2026-05-04 19:47 | 30.81853 | -98.10628 | 28045 ft | 388 kts | 339° |
| 2026-05-04 19:47 | 30.84469 | -98.11329 | 27514 ft | 384 kts | 339° |
| 2026-05-04 19:47 | 30.87062 | -98.12030 | 26989 ft | 381 kts | 339° |
| 2026-05-04 19:47 | 30.89602 | -98.12715 | 26483 ft | 377 kts | 339° |
| 2026-05-04 19:48 | 30.92138 | -98.13395 | 25974 ft | 372 kts | 339° |
| 2026-05-04 19:48 | 30.94642 | -98.14068 | 25453 ft | 366 kts | 339° |
| 2026-05-04 19:48 | 30.97108 | -98.14734 | 24968 ft | 362 kts | 339° |
| 2026-05-04 19:48 | 30.99546 | -98.15393 | 24513 ft | 357 kts | 339° |
| 2026-05-04 19:49 | 31.01951 | -98.16041 | 24047 ft | 353 kts | 339° |
| 2026-05-04 19:49 | 31.04330 | -98.16683 | 23582 ft | 349 kts | 339° |
| 2026-05-04 19:49 | 31.06682 | -98.17319 | 23036 ft | 346 kts | 339° |
| 2026-05-04 19:49 | 31.09018 | -98.17951 | 22488 ft | 343 kts | 339° |
| 2026-05-04 19:50 | 31.11337 | -98.18579 | 21950 ft | 341 kts | 339° |
| 2026-05-04 19:50 | 31.13642 | -98.19202 | 21427 ft | 340 kts | 339° |
| 2026-05-04 19:50 | 31.15944 | -98.19825 | 20911 ft | 339 kts | 339° |
| 2026-05-04 19:50 | 31.18235 | -98.20445 | 20406 ft | 338 kts | 340° |
| 2026-05-04 19:51 | 31.20519 | -98.21064 | 19907 ft | 337 kts | 340° |
| 2026-05-04 19:51 | 31.22804 | -98.21684 | 19415 ft | 336 kts | 340° |
| 2026-05-04 19:51 | 31.25073 | -98.22298 | 18998 ft | 334 kts | 340° |
| 2026-05-04 19:51 | 31.27321 | -98.22906 | 18599 ft | 330 kts | 340° |
| 2026-05-04 19:52 | 31.29546 | -98.23510 | 18200 ft | 326 kts | 340° |
| 2026-05-04 19:52 | 31.31739 | -98.24106 | 17754 ft | 321 kts | 340° |
| 2026-05-04 19:52 | 31.33896 | -98.24691 | 17353 ft | 316 kts | 340° |
| 2026-05-04 19:52 | 31.36015 | -98.25267 | 16974 ft | 310 kts | 340° |
| 2026-05-04 19:53 | 31.38103 | -98.25835 | 16578 ft | 305 kts | 340° |
| 2026-05-04 19:53 | 31.40159 | -98.26396 | 16206 ft | 301 kts | 340° |
| 2026-05-04 19:53 | 31.42140 | -98.27080 | 15828 ft | 293 kts | 333° |
| 2026-05-04 19:53 | 31.43960 | -98.28081 | 15452 ft | 286 kts | 326° |
| 2026-05-04 19:54 | 31.45703 | -98.29192 | 15096 ft | 284 kts | 327° |
| 2026-05-04 19:54 | 31.47474 | -98.30214 | 14734 ft | 283 kts | 329° |
| 2026-05-04 19:54 | 31.49260 | -98.31177 | 14386 ft | 282 kts | 329° |
| 2026-05-04 19:54 | 31.51024 | -98.32155 | 14031 ft | 280 kts | 328° |
| 2026-05-04 19:55 | 31.52801 | -98.33083 | 13694 ft | 282 kts | 337° |
| 2026-05-04 19:55 | 31.54769 | -98.33382 | 13311 ft | 291 kts | 356° |
| 2026-05-04 19:55 | 31.56780 | -98.32893 | 12934 ft | 301 kts | 14° |
| 2026-05-04 19:55 | 31.58685 | -98.31842 | 12560 ft | 305 kts | 24° |
| 2026-05-04 19:56 | 31.60497 | -98.30530 | 12196 ft | 306 kts | 27° |
| 2026-05-04 19:56 | 31.62309 | -98.29232 | 11837 ft | 304 kts | 24° |
| 2026-05-04 19:56 | 31.64137 | -98.28058 | 11548 ft | 303 kts | 23° |
| 2026-05-04 19:56 | 31.65981 | -98.26883 | 11284 ft | 301 kts | 24° |
| 2026-05-04 19:57 | 31.67794 | -98.25676 | 11021 ft | 299 kts | 25° |
| 2026-05-04 19:57 | 31.69600 | -98.24465 | 10756 ft | 298 kts | 25° |
| 2026-05-04 19:57 | 31.71400 | -98.23274 | 10499 ft | 297 kts | 25° |
| 2026-05-04 19:57 | 31.73199 | -98.22088 | 10238 ft | 296 kts | 25° |
| 2026-05-04 19:58 | 31.74991 | -98.20902 | 9980 ft | 296 kts | 25° |
| 2026-05-04 19:58 | 31.76780 | -98.19715 | 9720 ft | 295 kts | 25° |
| 2026-05-04 19:58 | 31.78566 | -98.18530 | 9438 ft | 295 kts | 25° |
| 2026-05-04 19:58 | 31.80353 | -98.17345 | 9163 ft | 295 kts | 25° |
| 2026-05-04 19:59 | 31.82138 | -98.16160 | 8886 ft | 294 kts | 25° |
| 2026-05-04 19:59 | 31.83924 | -98.14974 | 8606 ft | 295 kts | 25° |
| 2026-05-04 19:59 | 31.85708 | -98.13791 | 8335 ft | 295 kts | 26° |
| 2026-05-04 19:59 | 31.87489 | -98.12608 | 8084 ft | 294 kts | 25° |
| 2026-05-04 20:00 | 31.89267 | -98.11427 | 7835 ft | 293 kts | 26° |
| 2026-05-04 20:00 | 31.91039 | -98.10247 | 7585 ft | 293 kts | 26° |
| 2026-05-04 20:00 | 31.92810 | -98.09068 | 7343 ft | 292 kts | 25° |
| 2026-05-04 20:00 | 31.94575 | -98.07893 | 7117 ft | 291 kts | 26° |
| 2026-05-04 20:01 | 31.96333 | -98.06721 | 6878 ft | 291 kts | 26° |
| 2026-05-04 20:01 | 31.98095 | -98.05547 | 6640 ft | 291 kts | 26° |
| 2026-05-04 20:01 | 31.99859 | -98.04373 | 6419 ft | 291 kts | 26° |
| 2026-05-04 20:01 | 32.01622 | -98.03202 | 6181 ft | 291 kts | 26° |
| 2026-05-04 20:02 | 32.03388 | -98.02024 | 5939 ft | 292 kts | 27° |
| 2026-05-04 20:02 | 32.05153 | -98.00841 | 5692 ft | 292 kts | 27° |
| 2026-05-04 20:02 | 32.06921 | -97.99660 | 5456 ft | 293 kts | 27° |
| 2026-05-04 20:02 | 32.08696 | -97.98477 | 5213 ft | 293 kts | 27° |
| 2026-05-04 20:03 | 32.10477 | -97.97287 | 4987 ft | 295 kts | 27° |
| 2026-05-04 20:03 | 32.12261 | -97.96095 | 4746 ft | 294 kts | 27° |
| 2026-05-04 20:03 | 32.14042 | -97.94905 | 4507 ft | 295 kts | 28° |
| 2026-05-04 20:03 | 32.15827 | -97.93710 | 4250 ft | 295 kts | 28° |
| 2026-05-04 20:04 | 32.17617 | -97.92509 | 4033 ft | 296 kts | 30° |
| 2026-05-04 20:04 | 32.19376 | -97.91328 | 4026 ft | 286 kts | 29° |
| 2026-05-04 20:04 | 32.21083 | -97.90182 | 4002 ft | 279 kts | 29° |
| 2026-05-04 20:04 | 32.22748 | -97.89061 | 4002 ft | 272 kts | 29° |
| 2026-05-04 20:05 | 32.24373 | -97.87973 | 3989 ft | 265 kts | 29° |
| 2026-05-04 20:05 | 32.25958 | -97.86916 | 4002 ft | 258 kts | 30° |
| 2026-05-04 20:05 | 32.27500 | -97.85880 | 3987 ft | 252 kts | 29° |
| 2026-05-04 20:05 | 32.29005 | -97.84866 | 3983 ft | 246 kts | 30° |
| 2026-05-04 20:06 | 32.30483 | -97.83864 | 3988 ft | 244 kts | 29° |
| 2026-05-04 20:06 | 32.31954 | -97.82874 | 3977 ft | 242 kts | 29° |
| 2026-05-04 20:06 | 32.33394 | -97.81911 | 3988 ft | 240 kts | 29° |
| 2026-05-04 20:06 | 32.34867 | -97.80920 | 3964 ft | 240 kts | 28° |
| 2026-05-04 20:07 | 32.36298 | -97.79966 | 3957 ft | 239 kts | 29° |
| 2026-05-04 20:07 | 32.37740 | -97.78996 | 3955 ft | 238 kts | 29° |
| 2026-05-04 20:07 | 32.39174 | -97.78024 | 3978 ft | 239 kts | 28° |
| 2026-05-04 20:07 | 32.40627 | -97.77047 | 3961 ft | 241 kts | 28° |
| 2026-05-04 20:08 | 32.42084 | -97.76076 | 3973 ft | 241 kts | 28° |
| 2026-05-04 20:08 | 32.43537 | -97.75080 | 3978 ft | 241 kts | 28° |
| 2026-05-04 20:08 | 32.44989 | -97.74082 | 3974 ft | 241 kts | 27° |
| 2026-05-04 20:08 | 32.46449 | -97.73108 | 3971 ft | 241 kts | 30° |
| 2026-05-04 20:09 | 32.47764 | -97.71866 | 3960 ft | 243 kts | 45° |
| 2026-05-04 20:09 | 32.48861 | -97.70357 | 3960 ft | 242 kts | 52° |
| 2026-05-04 20:09 | 32.49937 | -97.68835 | 3963 ft | 241 kts | 49° |
| 2026-05-04 20:09 | 32.51074 | -97.67375 | 3970 ft | 242 kts | 47° |
| 2026-05-04 20:10 | 32.52224 | -97.65919 | 3964 ft | 242 kts | 47° |
| 2026-05-04 20:10 | 32.53356 | -97.64454 | 3967 ft | 241 kts | 48° |
| 2026-05-04 20:10 | 32.54485 | -97.62977 | 3966 ft | 242 kts | 48° |
| 2026-05-04 20:10 | 32.55624 | -97.61491 | 3960 ft | 243 kts | 48° |
| 2026-05-04 20:11 | 32.56767 | -97.60014 | 3972 ft | 243 kts | 49° |
| 2026-05-04 20:11 | 32.58029 | -97.58683 | 3933 ft | 246 kts | 26° |
| 2026-05-04 20:11 | 32.59649 | -97.58297 | 3971 ft | 235 kts | 353° |
| 2026-05-04 20:11 | 32.61272 | -97.58472 | 3971 ft | 235 kts | 347° |
| 2026-05-04 20:12 | 32.62910 | -97.58671 | 3959 ft | 237 kts | 349° |
| 2026-05-04 20:12 | 32.64555 | -97.58876 | 3966 ft | 238 kts | 349° |
| 2026-05-04 20:12 | 32.66200 | -97.59085 | 4033 ft | 238 kts | 349° |
| 2026-05-04 20:12 | 32.67851 | -97.59276 | 4036 ft | 239 kts | 350° |
| 2026-05-04 20:13 | 32.69501 | -97.59490 | 4053 ft | 239 kts | 349° |
| 2026-05-04 20:13 | 32.71168 | -97.59702 | 3995 ft | 244 kts | 349° |
| 2026-05-04 20:13 | 32.72860 | -97.59913 | 3889 ft | 245 kts | 349° |
| 2026-05-04 20:13 | 32.74556 | -97.60140 | 3762 ft | 245 kts | 349° |
| 2026-05-04 20:14 | 32.76218 | -97.60366 | 3600 ft | 236 kts | 349° |
| 2026-05-04 20:14 | 32.77820 | -97.60582 | 3425 ft | 228 kts | 349° |
| 2026-05-04 20:14 | 32.79370 | -97.60836 | 3260 ft | 223 kts | 348° |
| 2026-05-04 20:14 | 32.80918 | -97.61124 | 3095 ft | 228 kts | 348° |
| 2026-05-04 20:15 | 32.82494 | -97.61396 | 2933 ft | 229 kts | 349° |
| 2026-05-04 20:15 | 32.84061 | -97.61697 | 2782 ft | 229 kts | 349° |
| 2026-05-04 20:15 | 32.85635 | -97.61995 | 2628 ft | 231 kts | 348° |
| 2026-05-04 20:15 | 32.87205 | -97.62290 | 2596 ft | 233 kts | 348° |
| 2026-05-04 20:16 | 32.88797 | -97.62573 | 2608 ft | 229 kts | 349° |
| 2026-05-04 20:16 | 32.90344 | -97.62860 | 2612 ft | 223 kts | 349° |
| 2026-05-04 20:16 | 32.91871 | -97.63129 | 2608 ft | 221 kts | 349° |
| 2026-05-04 20:16 | 32.93391 | -97.63387 | 2617 ft | 220 kts | 349° |
| 2026-05-04 20:17 | 32.94899 | -97.63665 | 2604 ft | 218 kts | 348° |
| 2026-05-04 20:17 | 32.96386 | -97.63912 | 2599 ft | 214 kts | 349° |
| 2026-05-04 20:17 | 32.97845 | -97.64147 | 2606 ft | 211 kts | 349° |
| 2026-05-04 20:17 | 32.99299 | -97.64404 | 2604 ft | 212 kts | 349° |
| 2026-05-04 20:18 | 33.00762 | -97.64657 | 2589 ft | 214 kts | 349° |
| 2026-05-04 20:18 | 33.02244 | -97.64921 | 2591 ft | 218 kts | 349° |
| 2026-05-04 20:18 | 33.03751 | -97.65193 | 2590 ft | 220 kts | 349° |
| 2026-05-04 20:18 | 33.05279 | -97.65488 | 2376 ft | 225 kts | 348° |
| 2026-05-04 20:19 | 33.06834 | -97.65769 | 2369 ft | 226 kts | 349° |
| 2026-05-04 20:19 | 33.08381 | -97.66050 | 2371 ft | 224 kts | 348° |
| 2026-05-04 20:19 | 33.09904 | -97.66316 | 2364 ft | 217 kts | 349° |
| 2026-05-04 20:19 | 33.11396 | -97.66561 | 2357 ft | 218 kts | 351° |
| 2026-05-04 20:20 | 33.12901 | -97.66827 | 2365 ft | 220 kts | 349° |
| 2026-05-04 20:20 | 33.14413 | -97.67087 | 2375 ft | 219 kts | 349° |
| 2026-05-04 20:20 | 33.15910 | -97.67340 | 2378 ft | 217 kts | 348° |
| 2026-05-04 20:20 | 33.17402 | -97.67620 | 2378 ft | 217 kts | 348° |
| 2026-05-04 20:21 | 33.18894 | -97.67833 | 2365 ft | 215 kts | 356° |
| 2026-05-04 20:21 | 33.20296 | -97.67339 | 2365 ft | 211 kts | 43° |
| 2026-05-04 20:21 | 33.21533 | -97.64385 | 2387 ft | 201 kts | 78° |
| 2026-05-04 20:22 | 33.22011 | -97.62816 | 2363 ft | 201 kts | 77° |
| 2026-05-04 20:22 | 33.22037 | -97.61260 | 2358 ft | 179 kts | 119° |
| 2026-05-04 20:22 | 33.21550 | -97.59925 | 2363 ft | 180 kts | 119° |
| 2026-05-04 20:22 | 33.21274 | -97.58432 | 2361 ft | 189 kts | 107° |
| 2026-05-04 20:23 | 33.21126 | -97.56870 | 2360 ft | 189 kts | 104° |
| 2026-05-04 20:23 | 33.20970 | -97.55315 | 2362 ft | 189 kts | 106° |
| 2026-05-04 20:23 | 33.20795 | -97.53763 | 2367 ft | 189 kts | 106° |
| 2026-05-04 20:23 | 33.20622 | -97.52205 | 2360 ft | 189 kts | 106° |
| 2026-05-04 20:24 | 33.20452 | -97.50647 | 2363 ft | 189 kts | 107° |
| 2026-05-04 20:24 | 33.20279 | -97.49098 | 2373 ft | 189 kts | 107° |
| 2026-05-04 20:24 | 33.20106 | -97.47540 | 2366 ft | 189 kts | 107° |
| 2026-05-04 20:24 | 33.19933 | -97.45987 | 2366 ft | 189 kts | 107° |
| 2026-05-04 20:25 | 33.19762 | -97.44436 | 2382 ft | 188 kts | 107° |
| 2026-05-04 20:25 | 33.19587 | -97.42877 | 2381 ft | 191 kts | 108° |
| 2026-05-04 20:25 | 33.19415 | -97.41307 | 2376 ft | 190 kts | 106° |
| 2026-05-04 20:25 | 33.19238 | -97.39747 | 2387 ft | 190 kts | 106° |
| 2026-05-04 20:26 | 33.19060 | -97.38200 | 2377 ft | 186 kts | 106° |
| 2026-05-04 20:26 | 33.18830 | -97.37246 | 2353 ft | 175 kts | 125° |
| 2026-05-04 20:26 | 33.18107 | -97.36181 | 2369 ft | 157 kts | 146° |
| 2026-05-04 20:26 | 33.17195 | -97.35560 | 2367 ft | 151 kts | 165° |
| 2026-05-04 20:27 | 33.16197 | -97.35351 | 2373 ft | 139 kts | 177° |
| 2026-05-04 20:27 | 33.15285 | -97.35188 | 2365 ft | 127 kts | 174° |
| 2026-05-04 20:27 | 33.14465 | -97.35010 | 2361 ft | 113 kts | 175° |
| 2026-05-04 20:27 | 33.13720 | -97.34868 | 2369 ft | 107 kts | 175° |
| 2026-05-04 20:28 | 33.12966 | -97.34702 | 2381 ft | 114 kts | 173° |
| 2026-05-04 20:28 | 33.12148 | -97.34543 | 2393 ft | 123 kts | 173° |
| 2026-05-04 20:28 | 33.11296 | -97.34360 | 2388 ft | 125 kts | 174° |
| 2026-05-04 20:28 | 33.10421 | -97.34194 | 2384 ft | 128 kts | 173° |
| 2026-05-04 20:29 | 33.09545 | -97.34023 | 2389 ft | 127 kts | 172° |
| 2026-05-04 20:29 | 33.08676 | -97.33832 | 2348 ft | 127 kts | 171° |
| 2026-05-04 20:29 | 33.07805 | -97.33639 | 2196 ft | 127 kts | 173° |
| 2026-05-04 20:29 | 33.06955 | -97.33473 | 2031 ft | 119 kts | 173° |
| 2026-05-04 20:30 | 33.06172 | -97.33305 | 1874 ft | 110 kts | 174° |
| 2026-05-04 20:30 | 33.05418 | -97.33159 | 1742 ft | 112 kts | 173° |
| 2026-05-04 20:30 | 33.04635 | -97.32984 | 1562 ft | 117 kts | 172° |
| 2026-05-04 20:30 | 33.03824 | -97.32837 | 1440 ft | 120 kts | 173° |
| 2026-05-04 20:31 | 33.02976 | -97.32661 | 1267 ft | 127 kts | 169° |
| 2026-05-04 20:31 | 33.02096 | -97.32466 | 1120 ft | 130 kts | 168° |
| 2026-05-04 20:31 | 33.01213 | -97.32300 | 878 ft | 125 kts | 167° |
| 2026-05-04 20:31 | 33.00407 | -97.32114 | 691 ft | 109 kts | 171° |
| 2026-05-04 20:32 | 32.99780 | -97.31985 | 692 ft | 69 kts | 171° |
| 2026-05-04 20:32 | 32.99417 | -97.31918 | 689 ft | 33 kts | 171° |
| 2026-05-04 20:32 | 32.99264 | -97.31877 | 693 ft | 16 kts | 139° |
| 2026-05-04 20:32 | 32.99247 | -97.31803 | 691 ft | 0 kts | 63° |
| 2026-05-04 20:34 | 32.99248 | -97.31802 | 690 ft | 1 kts | 62° |
| 2026-05-04 20:34 | 32.99267 | -97.31779 | 687 ft | 8 kts | 28° |
| 2026-05-04 20:35 | 32.99345 | -97.31770 | 689 ft | 15 kts | 351° |
| 2026-05-04 20:35 | 32.99465 | -97.31798 | 688 ft | 20 kts | 349° |
| 2026-05-04 20:35 | 32.99611 | -97.31830 | 690 ft | 22 kts | 349° |
| 2026-05-04 20:35 | 32.99733 | -97.31857 | 691 ft | 15 kts | 356° |
| 2026-05-04 20:36 | 32.99796 | -97.31784 | 686 ft | 14 kts | 78° |
| 2026-05-04 20:36 | 32.99813 | -97.31676 | 690 ft | 13 kts | 81° |
| 2026-05-04 20:36 | 32.99830 | -97.31569 | 694 ft | 13 kts | 78° |
| 2026-05-04 20:36 | 32.99850 | -97.31469 | 691 ft | 12 kts | 78° |
| 2026-05-04 20:37 | 32.99865 | -97.31370 | 694 ft | 12 kts | 82° |
| 2026-05-04 20:37 | 32.99876 | -97.31271 | 694 ft | 12 kts | 91° |
| 2026-05-04 20:37 | 32.99831 | -97.31204 | 689 ft | 11 kts | 160° |
| 2026-05-04 20:37 | 32.99759 | -97.31190 | 690 ft | 10 kts | 193° |
| 2026-05-04 20:38 | 32.99719 | -97.31246 | 691 ft | 9 kts | 254° |
| 2026-05-04 20:38 | 32.99705 | -97.31325 | 689 ft | 10 kts | 259° |
| 2026-05-04 20:38 | 32.99693 | -97.31406 | 692 ft | 9 kts | 260° |
| 2026-05-04 20:38 | 32.99679 | -97.31458 | 687 ft | 5 kts | 213° |
| 2026-05-04 20:39 | 32.99649 | -97.31464 | 694 ft | 4 kts | 177° |
| 2026-05-04 20:39 | 32.99621 | -97.31460 | 686 ft | 4 kts | 172° |
| 2026-05-04 20:39 | 32.99613 | -97.31459 | 689 ft | 0 kts | 172° |
| 2026-05-04 20:39 | 32.99612 | -97.31459 | 689 ft | 0 kts | 172° |